sensor_id;sensor_type;location;lat;lon;timestamp;P1;durP1;ratioP1;P2;durP2;ratioP2
75096;SDS011;63684;47.964;11.186;2022-12-29T00:01:31;1.00;;;0.60;;
75096;SDS011;63684;47.964;11.186;2022-12-29T00:03:57;0.90;;;0.77;;
75096;SDS011;63684;47.964;11.186;2022-12-29T00:06:23;1.90;;;0.90;;
75096;SDS011;63684;47.964;11.186;2022-12-29T00:08:48;2.30;;;1.00;;
75096;SDS011;63684;47.964;11.186;2022-12-29T00:11:18;0.63;;;0.60;;
75096;SDS011;63684;47.964;11.186;2022-12-29T00:13:45;2.13;;;0.80;;
75096;SDS011;63684;47.964;11.186;2022-12-29T00:16:30;0.60;;;0.60;;
75096;SDS011;63684;47.964;11.186;2022-12-29T00:18:55;0.90;;;0.80;;
75096;SDS011;63684;47.964;11.186;2022-12-29T00:21:22;0.80;;;0.80;;
75096;SDS011;63684;47.964;11.186;2022-12-29T00:24:09;0.80;;;0.80;;
75096;SDS011;63684;47.964;11.186;2022-12-29T00:26:48;1.23;;;1.13;;
75096;SDS011;63684;47.964;11.186;2022-12-29T00:29:34;1.37;;;0.77;;
75096;SDS011;63684;47.964;11.186;2022-12-29T00:32:18;4.10;;;0.80;;
75096;SDS011;63684;47.964;11.186;2022-12-29T00:35:03;0.90;;;0.70;;
75096;SDS011;63684;47.964;11.186;2022-12-29T00:37:38;1.03;;;0.83;;
75096;SDS011;63684;47.964;11.186;2022-12-29T00:40:24;0.73;;;0.70;;
75096;SDS011;63684;47.964;11.186;2022-12-29T00:43:08;0.50;;;0.50;;
75096;SDS011;63684;47.964;11.186;2022-12-29T00:45:52;1.37;;;0.70;;
75096;SDS011;63684;47.964;11.186;2022-12-29T00:48:18;0.67;;;0.67;;
75096;SDS011;63684;47.964;11.186;2022-12-29T00:51:02;1.13;;;1.00;;
75096;SDS011;63684;47.964;11.186;2022-12-29T00:53:27;4.10;;;3.30;;
75096;SDS011;63684;47.964;11.186;2022-12-29T00:55:53;0.90;;;0.80;;
75096;SDS011;63684;47.964;11.186;2022-12-29T00:58:18;1.73;;;1.00;;
75096;SDS011;63684;47.964;11.186;2022-12-29T01:00:44;1.03;;;0.90;;
75096;SDS011;63684;47.964;11.186;2022-12-29T01:03:09;1.17;;;0.90;;
75096;SDS011;63684;47.964;11.186;2022-12-29T01:05:37;0.83;;;0.80;;
75096;SDS011;63684;47.964;11.186;2022-12-29T01:08:05;0.80;;;0.77;;
75096;SDS011;63684;47.964;11.186;2022-12-29T01:10:30;1.20;;;1.00;;
75096;SDS011;63684;47.964;11.186;2022-12-29T01:12:55;0.70;;;0.70;;
75096;SDS011;63684;47.964;11.186;2022-12-29T01:15:21;0.80;;;0.80;;
75096;SDS011;63684;47.964;11.186;2022-12-29T01:17:47;0.70;;;0.60;;
75096;SDS011;63684;47.964;11.186;2022-12-29T01:20:13;0.87;;;0.67;;
75096;SDS011;63684;47.964;11.186;2022-12-29T01:22:38;0.97;;;0.73;;
75096;SDS011;63684;47.964;11.186;2022-12-29T01:25:04;0.60;;;0.60;;
75096;SDS011;63684;47.964;11.186;2022-12-29T01:27:30;1.00;;;0.70;;
75096;SDS011;63684;47.964;11.186;2022-12-29T01:29:56;1.13;;;0.77;;
75096;SDS011;63684;47.964;11.186;2022-12-29T01:32:22;1.83;;;1.00;;
75096;SDS011;63684;47.964;11.186;2022-12-29T01:34:47;0.60;;;0.50;;
75096;SDS011;63684;47.964;11.186;2022-12-29T01:37:13;0.63;;;0.60;;
75096;SDS011;63684;47.964;11.186;2022-12-29T01:39:38;0.80;;;0.70;;
75096;SDS011;63684;47.964;11.186;2022-12-29T01:42:04;0.60;;;0.60;;
75096;SDS011;63684;47.964;11.186;2022-12-29T01:47:39;1.07;;;0.80;;
75096;SDS011;63684;47.964;11.186;2022-12-29T01:52:38;0.60;;;0.60;;
75096;SDS011;63684;47.964;11.186;2022-12-29T01:55:07;0.70;;;0.70;;
75096;SDS011;63684;47.964;11.186;2022-12-29T01:57:34;0.77;;;0.70;;
75096;SDS011;63684;47.964;11.186;2022-12-29T02:00:07;0.87;;;0.83;;
75096;SDS011;63684;47.964;11.186;2022-12-29T02:02:38;0.50;;;0.50;;
75096;SDS011;63684;47.964;11.186;2022-12-29T02:05:08;1.37;;;1.07;;
75096;SDS011;63684;47.964;11.186;2022-12-29T02:07:36;1.23;;;0.60;;
75096;SDS011;63684;47.964;11.186;2022-12-29T02:10:02;0.80;;;0.80;;
75096;SDS011;63684;47.964;11.186;2022-12-29T02:12:28;1.73;;;0.80;;
75096;SDS011;63684;47.964;11.186;2022-12-29T02:14:55;0.70;;;0.67;;
75096;SDS011;63684;47.964;11.186;2022-12-29T02:17:29;0.80;;;0.70;;
75096;SDS011;63684;47.964;11.186;2022-12-29T02:39:40;0.77;;;0.77;;
75096;SDS011;63684;47.964;11.186;2022-12-29T02:47:37;3.57;;;0.60;;
75096;SDS011;63684;47.964;11.186;2022-12-29T02:50:17;0.70;;;0.60;;
75096;SDS011;63684;47.964;11.186;2022-12-29T02:52:57;0.90;;;0.60;;
75096;SDS011;63684;47.964;11.186;2022-12-29T02:55:24;0.50;;;0.50;;
75096;SDS011;63684;47.964;11.186;2022-12-29T02:58:05;1.20;;;0.60;;
75096;SDS011;63684;47.964;11.186;2022-12-29T03:00:38;2.60;;;0.70;;
75096;SDS011;63684;47.964;11.186;2022-12-29T03:08:23;0.70;;;0.70;;
75096;SDS011;63684;47.964;11.186;2022-12-29T03:11:03;0.80;;;0.77;;
75096;SDS011;63684;47.964;11.186;2022-12-29T03:14:03;1.30;;;0.67;;
75096;SDS011;63684;47.964;11.186;2022-12-29T03:16:57;1.20;;;1.00;;
75096;SDS011;63684;47.964;11.186;2022-12-29T03:19:27;1.07;;;0.57;;
75096;SDS011;63684;47.964;11.186;2022-12-29T03:22:02;1.43;;;0.80;;
75096;SDS011;63684;47.964;11.186;2022-12-29T03:24:54;0.90;;;0.67;;
75096;SDS011;63684;47.964;11.186;2022-12-29T03:27:29;1.23;;;0.60;;
75096;SDS011;63684;47.964;11.186;2022-12-29T03:29:58;0.90;;;0.70;;
75096;SDS011;63684;47.964;11.186;2022-12-29T03:32:36;1.00;;;0.80;;
75096;SDS011;63684;47.964;11.186;2022-12-29T03:35:05;0.60;;;0.60;;
75096;SDS011;63684;47.964;11.186;2022-12-29T03:37:35;1.07;;;0.97;;
75096;SDS011;63684;47.964;11.186;2022-12-29T03:40:05;0.70;;;0.70;;
75096;SDS011;63684;47.964;11.186;2022-12-29T03:42:31;0.80;;;0.60;;
75096;SDS011;63684;47.964;11.186;2022-12-29T03:44:58;0.93;;;0.80;;
75096;SDS011;63684;47.964;11.186;2022-12-29T03:47:24;0.53;;;0.53;;
75096;SDS011;63684;47.964;11.186;2022-12-29T03:49:50;0.67;;;0.60;;
75096;SDS011;63684;47.964;11.186;2022-12-29T03:52:16;0.83;;;0.67;;
75096;SDS011;63684;47.964;11.186;2022-12-29T03:54:43;1.00;;;0.70;;
75096;SDS011;63684;47.964;11.186;2022-12-29T03:57:10;2.80;;;0.77;;
75096;SDS011;63684;47.964;11.186;2022-12-29T03:59:46;0.80;;;0.80;;
75096;SDS011;63684;47.964;11.186;2022-12-29T04:02:11;1.50;;;0.70;;
75096;SDS011;63684;47.964;11.186;2022-12-29T04:04:38;1.23;;;0.50;;
75096;SDS011;63684;47.964;11.186;2022-12-29T04:07:03;0.70;;;0.70;;
75096;SDS011;63684;47.964;11.186;2022-12-29T04:09:29;1.60;;;0.77;;
75096;SDS011;63684;47.964;11.186;2022-12-29T04:11:56;0.70;;;0.70;;
75096;SDS011;63684;47.964;11.186;2022-12-29T04:14:22;1.70;;;0.97;;
75096;SDS011;63684;47.964;11.186;2022-12-29T04:16:47;0.60;;;0.60;;
75096;SDS011;63684;47.964;11.186;2022-12-29T04:19:13;0.70;;;0.63;;
75096;SDS011;63684;47.964;11.186;2022-12-29T04:21:38;1.23;;;0.83;;
75096;SDS011;63684;47.964;11.186;2022-12-29T04:24:04;2.37;;;0.70;;
75096;SDS011;63684;47.964;11.186;2022-12-29T04:26:33;0.93;;;0.60;;
75096;SDS011;63684;47.964;11.186;2022-12-29T04:29:13;4.77;;;0.70;;
75096;SDS011;63684;47.964;11.186;2022-12-29T04:31:46;0.67;;;0.67;;
75096;SDS011;63684;47.964;11.186;2022-12-29T04:34:12;0.63;;;0.60;;
75096;SDS011;63684;47.964;11.186;2022-12-29T04:36:37;1.20;;;0.90;;
75096;SDS011;63684;47.964;11.186;2022-12-29T04:39:05;0.77;;;0.50;;
75096;SDS011;63684;47.964;11.186;2022-12-29T04:41:32;0.60;;;0.60;;
75096;SDS011;63684;47.964;11.186;2022-12-29T04:43:57;0.80;;;0.67;;
75096;SDS011;63684;47.964;11.186;2022-12-29T04:46:43;0.60;;;0.60;;
75096;SDS011;63684;47.964;11.186;2022-12-29T04:49:17;0.70;;;0.70;;
75096;SDS011;63684;47.964;11.186;2022-12-29T04:51:51;1.23;;;1.00;;
75096;SDS011;63684;47.964;11.186;2022-12-29T04:54:17;0.70;;;0.67;;
75096;SDS011;63684;47.964;11.186;2022-12-29T04:56:47;0.80;;;0.80;;
75096;SDS011;63684;47.964;11.186;2022-12-29T04:59:15;1.47;;;0.80;;
75096;SDS011;63684;47.964;11.186;2022-12-29T05:01:42;1.00;;;0.60;;
75096;SDS011;63684;47.964;11.186;2022-12-29T05:04:07;1.07;;;0.70;;
75096;SDS011;63684;47.964;11.186;2022-12-29T05:06:32;1.47;;;0.80;;
75096;SDS011;63684;47.964;11.186;2022-12-29T05:08:59;1.00;;;0.60;;
75096;SDS011;63684;47.964;11.186;2022-12-29T05:11:25;1.93;;;1.00;;
75096;SDS011;63684;47.964;11.186;2022-12-29T05:13:52;0.90;;;0.60;;
75096;SDS011;63684;47.964;11.186;2022-12-29T05:16:17;1.27;;;1.00;;
75096;SDS011;63684;47.964;11.186;2022-12-29T05:18:43;0.50;;;0.50;;
75096;SDS011;63684;47.964;11.186;2022-12-29T05:21:08;0.80;;;0.70;;
75096;SDS011;63684;47.964;11.186;2022-12-29T05:23:34;0.90;;;0.70;;
75096;SDS011;63684;47.964;11.186;2022-12-29T05:26:03;1.23;;;0.60;;
75096;SDS011;63684;47.964;11.186;2022-12-29T05:28:55;1.07;;;0.57;;
75096;SDS011;63684;47.964;11.186;2022-12-29T05:31:21;1.07;;;0.47;;
75096;SDS011;63684;47.964;11.186;2022-12-29T05:33:47;0.60;;;0.50;;
75096;SDS011;63684;47.964;11.186;2022-12-29T05:36:13;1.37;;;0.63;;
75096;SDS011;63684;47.964;11.186;2022-12-29T05:38:42;0.50;;;0.50;;
75096;SDS011;63684;47.964;11.186;2022-12-29T05:41:08;2.03;;;1.43;;
75096;SDS011;63684;47.964;11.186;2022-12-29T05:43:45;0.70;;;0.60;;
75096;SDS011;63684;47.964;11.186;2022-12-29T05:46:28;0.87;;;0.73;;
75096;SDS011;63684;47.964;11.186;2022-12-29T05:49:20;0.87;;;0.50;;
75096;SDS011;63684;47.964;11.186;2022-12-29T05:52:05;0.73;;;0.60;;
75096;SDS011;63684;47.964;11.186;2022-12-29T05:54:32;0.50;;;0.50;;
75096;SDS011;63684;47.964;11.186;2022-12-29T05:56:57;1.93;;;0.80;;
75096;SDS011;63684;47.964;11.186;2022-12-29T05:59:23;0.80;;;0.50;;
75096;SDS011;63684;47.964;11.186;2022-12-29T06:01:49;1.83;;;0.67;;
75096;SDS011;63684;47.964;11.186;2022-12-29T06:04:15;1.17;;;1.00;;
75096;SDS011;63684;47.964;11.186;2022-12-29T06:06:40;0.70;;;0.70;;
75096;SDS011;63684;47.964;11.186;2022-12-29T06:09:11;1.10;;;0.80;;
75096;SDS011;63684;47.964;11.186;2022-12-29T06:11:37;0.83;;;0.63;;
75096;SDS011;63684;47.964;11.186;2022-12-29T06:14:02;0.60;;;0.60;;
75096;SDS011;63684;47.964;11.186;2022-12-29T06:16:28;2.50;;;0.70;;
75096;SDS011;63684;47.964;11.186;2022-12-29T06:18:57;1.33;;;0.60;;
75096;SDS011;63684;47.964;11.186;2022-12-29T06:21:22;1.23;;;0.73;;
75096;SDS011;63684;47.964;11.186;2022-12-29T06:23:48;1.03;;;0.63;;
75096;SDS011;63684;47.964;11.186;2022-12-29T06:26:13;0.60;;;0.60;;
75096;SDS011;63684;47.964;11.186;2022-12-29T06:28:39;1.47;;;0.97;;
75096;SDS011;63684;47.964;11.186;2022-12-29T06:31:04;0.70;;;0.70;;
75096;SDS011;63684;47.964;11.186;2022-12-29T06:33:30;1.00;;;0.77;;
75096;SDS011;63684;47.964;11.186;2022-12-29T06:35:56;0.70;;;0.70;;
75096;SDS011;63684;47.964;11.186;2022-12-29T06:38:21;0.77;;;0.63;;
75096;SDS011;63684;47.964;11.186;2022-12-29T06:40:47;1.50;;;0.90;;
75096;SDS011;63684;47.964;11.186;2022-12-29T06:43:18;3.40;;;0.73;;
75096;SDS011;63684;47.964;11.186;2022-12-29T06:45:43;0.87;;;0.67;;
75096;SDS011;63684;47.964;11.186;2022-12-29T06:48:09;0.70;;;0.70;;
75096;SDS011;63684;47.964;11.186;2022-12-29T06:50:34;0.60;;;0.60;;
75096;SDS011;63684;47.964;11.186;2022-12-29T06:53:00;1.53;;;0.90;;
75096;SDS011;63684;47.964;11.186;2022-12-29T06:55:25;1.53;;;1.10;;
75096;SDS011;63684;47.964;11.186;2022-12-29T06:57:53;1.60;;;1.40;;
75096;SDS011;63684;47.964;11.186;2022-12-29T07:00:20;4.10;;;2.80;;
75096;SDS011;63684;47.964;11.186;2022-12-29T07:02:45;3.50;;;1.87;;
75096;SDS011;63684;47.964;11.186;2022-12-29T07:05:11;2.83;;;1.70;;
75096;SDS011;63684;47.964;11.186;2022-12-29T07:07:36;3.47;;;1.50;;
75096;SDS011;63684;47.964;11.186;2022-12-29T07:10:02;1.63;;;1.40;;
75096;SDS011;63684;47.964;11.186;2022-12-29T07:12:28;4.07;;;1.30;;
75096;SDS011;63684;47.964;11.186;2022-12-29T07:14:53;1.93;;;1.40;;
75096;SDS011;63684;47.964;11.186;2022-12-29T07:17:19;2.47;;;1.70;;
75096;SDS011;63684;47.964;11.186;2022-12-29T07:19:44;3.97;;;1.30;;
75096;SDS011;63684;47.964;11.186;2022-12-29T07:22:10;2.93;;;1.10;;
75096;SDS011;63684;47.964;11.186;2022-12-29T07:24:35;2.53;;;1.30;;
75096;SDS011;63684;47.964;11.186;2022-12-29T07:27:01;3.43;;;2.03;;
75096;SDS011;63684;47.964;11.186;2022-12-29T07:29:26;1.30;;;1.20;;
75096;SDS011;63684;47.964;11.186;2022-12-29T07:31:51;1.50;;;1.17;;
75096;SDS011;63684;47.964;11.186;2022-12-29T07:34:17;4.13;;;2.17;;
75096;SDS011;63684;47.964;11.186;2022-12-29T07:36:42;5.47;;;1.20;;
75096;SDS011;63684;47.964;11.186;2022-12-29T07:39:07;1.20;;;1.10;;
75096;SDS011;63684;47.964;11.186;2022-12-29T07:41:33;3.30;;;1.27;;
75096;SDS011;63684;47.964;11.186;2022-12-29T07:44:01;5.47;;;1.37;;
75096;SDS011;63684;47.964;11.186;2022-12-29T07:46:45;4.50;;;1.80;;
75096;SDS011;63684;47.964;11.186;2022-12-29T07:49:10;3.37;;;2.13;;
75096;SDS011;63684;47.964;11.186;2022-12-29T07:51:36;3.53;;;2.10;;
75096;SDS011;63684;47.964;11.186;2022-12-29T07:54:02;3.57;;;1.50;;
75096;SDS011;63684;47.964;11.186;2022-12-29T07:56:27;1.43;;;0.80;;
75096;SDS011;63684;47.964;11.186;2022-12-29T07:58:53;1.10;;;0.80;;
75096;SDS011;63684;47.964;11.186;2022-12-29T08:01:18;2.17;;;1.00;;
75096;SDS011;63684;47.964;11.186;2022-12-29T08:03:44;0.80;;;0.80;;
75096;SDS011;63684;47.964;11.186;2022-12-29T08:06:10;5.50;;;0.90;;
75096;SDS011;63684;47.964;11.186;2022-12-29T08:08:35;1.60;;;0.70;;
75096;SDS011;63684;47.964;11.186;2022-12-29T08:11:01;1.77;;;0.70;;
75096;SDS011;63684;47.964;11.186;2022-12-29T08:13:26;1.43;;;0.70;;
75096;SDS011;63684;47.964;11.186;2022-12-29T08:15:52;1.30;;;0.77;;
75096;SDS011;63684;47.964;11.186;2022-12-29T08:18:17;2.20;;;0.53;;
75096;SDS011;63684;47.964;11.186;2022-12-29T08:20:42;1.60;;;0.63;;
75096;SDS011;63684;47.964;11.186;2022-12-29T08:23:08;1.17;;;0.90;;
75096;SDS011;63684;47.964;11.186;2022-12-29T08:25:33;1.67;;;0.60;;
75096;SDS011;63684;47.964;11.186;2022-12-29T08:27:59;1.00;;;0.50;;
75096;SDS011;63684;47.964;11.186;2022-12-29T08:30:24;0.80;;;0.73;;
75096;SDS011;63684;47.964;11.186;2022-12-29T08:32:50;0.83;;;0.67;;
75096;SDS011;63684;47.964;11.186;2022-12-29T08:35:15;1.13;;;0.70;;
75096;SDS011;63684;47.964;11.186;2022-12-29T08:37:41;1.53;;;0.60;;
75096;SDS011;63684;47.964;11.186;2022-12-29T08:40:07;1.27;;;0.90;;
75096;SDS011;63684;47.964;11.186;2022-12-29T08:42:32;0.87;;;0.60;;
75096;SDS011;63684;47.964;11.186;2022-12-29T08:44:58;0.70;;;0.70;;
75096;SDS011;63684;47.964;11.186;2022-12-29T08:47:24;1.50;;;0.60;;
75096;SDS011;63684;47.964;11.186;2022-12-29T08:49:50;0.83;;;0.70;;
75096;SDS011;63684;47.964;11.186;2022-12-29T08:52:15;0.70;;;0.60;;
75096;SDS011;63684;47.964;11.186;2022-12-29T08:54:41;1.37;;;1.27;;
75096;SDS011;63684;47.964;11.186;2022-12-29T08:57:06;4.73;;;1.10;;
75096;SDS011;63684;47.964;11.186;2022-12-29T08:59:37;1.50;;;0.67;;
75096;SDS011;63684;47.964;11.186;2022-12-29T09:02:03;1.50;;;1.10;;
75096;SDS011;63684;47.964;11.186;2022-12-29T09:04:28;2.33;;;1.00;;
75096;SDS011;63684;47.964;11.186;2022-12-29T09:06:53;1.70;;;0.70;;
75096;SDS011;63684;47.964;11.186;2022-12-29T09:09:19;1.80;;;0.90;;
75096;SDS011;63684;47.964;11.186;2022-12-29T09:11:45;0.90;;;0.73;;
75096;SDS011;63684;47.964;11.186;2022-12-29T09:14:10;3.07;;;0.90;;
75096;SDS011;63684;47.964;11.186;2022-12-29T09:16:36;1.37;;;0.70;;
75096;SDS011;63684;47.964;11.186;2022-12-29T09:19:02;3.27;;;1.70;;
75096;SDS011;63684;47.964;11.186;2022-12-29T09:21:28;0.93;;;0.90;;
75096;SDS011;63684;47.964;11.186;2022-12-29T09:23:54;1.43;;;1.00;;
75096;SDS011;63684;47.964;11.186;2022-12-29T09:26:19;3.83;;;2.67;;
75096;SDS011;63684;47.964;11.186;2022-12-29T09:28:45;0.90;;;0.80;;
75096;SDS011;63684;47.964;11.186;2022-12-29T09:31:11;4.17;;;1.00;;
75096;SDS011;63684;47.964;11.186;2022-12-29T09:33:36;1.27;;;0.90;;
75096;SDS011;63684;47.964;11.186;2022-12-29T09:36:02;1.67;;;0.90;;
75096;SDS011;63684;47.964;11.186;2022-12-29T09:38:28;0.87;;;0.80;;
75096;SDS011;63684;47.964;11.186;2022-12-29T09:40:55;3.33;;;1.00;;
75096;SDS011;63684;47.964;11.186;2022-12-29T09:46:13;3.07;;;0.77;;
75096;SDS011;63684;47.964;11.186;2022-12-29T09:48:45;1.60;;;0.90;;
75096;SDS011;63684;47.964;11.186;2022-12-29T09:51:15;0.50;;;0.50;;
75096;SDS011;63684;47.964;11.186;2022-12-29T09:53:45;3.80;;;0.60;;
75096;SDS011;63684;47.964;11.186;2022-12-29T09:56:15;1.43;;;0.70;;
75096;SDS011;63684;47.964;11.186;2022-12-29T09:58:44;4.43;;;0.93;;
75096;SDS011;63684;47.964;11.186;2022-12-29T10:03:57;0.83;;;0.80;;
75096;SDS011;63684;47.964;11.186;2022-12-29T10:06:30;2.10;;;0.93;;
75096;SDS011;63684;47.964;11.186;2022-12-29T10:25:28;1.27;;;1.00;;
75096;SDS011;63684;47.964;11.186;2022-12-29T10:27:57;0.80;;;0.80;;
75096;SDS011;63684;47.964;11.186;2022-12-29T10:30:25;1.47;;;0.90;;
75096;SDS011;63684;47.964;11.186;2022-12-29T10:32:58;2.50;;;1.40;;
75096;SDS011;63684;47.964;11.186;2022-12-29T10:35:34;1.37;;;0.80;;
75096;SDS011;63684;47.964;11.186;2022-12-29T10:45:52;1.93;;;1.00;;
75096;SDS011;63684;47.964;11.186;2022-12-29T10:48:33;1.00;;;0.80;;
75096;SDS011;63684;47.964;11.186;2022-12-29T10:51:00;1.93;;;1.47;;
75096;SDS011;63684;47.964;11.186;2022-12-29T10:53:38;2.00;;;0.90;;
75096;SDS011;63684;47.964;11.186;2022-12-29T10:56:11;1.50;;;1.40;;
75096;SDS011;63684;47.964;11.186;2022-12-29T10:58:50;3.00;;;2.27;;
75096;SDS011;63684;47.964;11.186;2022-12-29T11:01:16;4.60;;;1.13;;
75096;SDS011;63684;47.964;11.186;2022-12-29T11:06:26;3.77;;;1.30;;
75096;SDS011;63684;47.964;11.186;2022-12-29T11:08:57;1.23;;;1.10;;
75096;SDS011;63684;47.964;11.186;2022-12-29T11:11:32;2.63;;;1.70;;
75096;SDS011;63684;47.964;11.186;2022-12-29T11:14:02;12.30;;;7.10;;
75096;SDS011;63684;47.964;11.186;2022-12-29T11:16:35;1.90;;;1.37;;
75096;SDS011;63684;47.964;11.186;2022-12-29T11:19:01;2.43;;;0.90;;
75096;SDS011;63684;47.964;11.186;2022-12-29T11:21:34;5.43;;;1.40;;
75096;SDS011;63684;47.964;11.186;2022-12-29T11:24:08;2.23;;;2.03;;
75096;SDS011;63684;47.964;11.186;2022-12-29T11:26:44;2.00;;;1.10;;
75096;SDS011;63684;47.964;11.186;2022-12-29T11:31:48;1.90;;;1.30;;
75096;SDS011;63684;47.964;11.186;2022-12-29T11:34:22;1.20;;;1.00;;
75096;SDS011;63684;47.964;11.186;2022-12-29T11:36:50;1.77;;;1.10;;
75096;SDS011;63684;47.964;11.186;2022-12-29T11:41:58;1.60;;;0.80;;
75096;SDS011;63684;47.964;11.186;2022-12-29T11:44:23;2.33;;;1.07;;
75096;SDS011;63684;47.964;11.186;2022-12-29T11:46:49;1.30;;;0.97;;
75096;SDS011;63684;47.964;11.186;2022-12-29T11:49:22;6.63;;;1.10;;
75096;SDS011;63684;47.964;11.186;2022-12-29T11:51:49;3.43;;;1.23;;
75096;SDS011;63684;47.964;11.186;2022-12-29T11:54:18;2.13;;;1.37;;
75096;SDS011;63684;47.964;11.186;2022-12-29T11:56:46;4.57;;;1.77;;
75096;SDS011;63684;47.964;11.186;2022-12-29T12:01:54;7.30;;;1.50;;
75096;SDS011;63684;47.964;11.186;2022-12-29T12:04:23;1.40;;;0.93;;
75096;SDS011;63684;47.964;11.186;2022-12-29T12:07:09;4.60;;;1.60;;
75096;SDS011;63684;47.964;11.186;2022-12-29T12:09:45;2.53;;;1.77;;
75096;SDS011;63684;47.964;11.186;2022-12-29T12:12:28;2.27;;;0.93;;
75096;SDS011;63684;47.964;11.186;2022-12-29T12:14:58;1.97;;;1.33;;
75096;SDS011;63684;47.964;11.186;2022-12-29T12:17:47;2.10;;;1.30;;
75096;SDS011;63684;47.964;11.186;2022-12-29T12:20:32;0.97;;;0.77;;
75096;SDS011;63684;47.964;11.186;2022-12-29T12:23:10;1.90;;;1.30;;
75096;SDS011;63684;47.964;11.186;2022-12-29T12:28:45;4.03;;;1.10;;
75096;SDS011;63684;47.964;11.186;2022-12-29T12:31:18;1.60;;;1.50;;
75096;SDS011;63684;47.964;11.186;2022-12-29T12:33:53;1.60;;;1.30;;
75096;SDS011;63684;47.964;11.186;2022-12-29T12:49:20;1.10;;;0.90;;
75096;SDS011;63684;47.964;11.186;2022-12-29T13:00:02;2.83;;;1.10;;
75096;SDS011;63684;47.964;11.186;2022-12-29T13:11:47;1.13;;;0.80;;
75096;SDS011;63684;47.964;11.186;2022-12-29T13:27:45;2.93;;;1.60;;
75096;SDS011;63684;47.964;11.186;2022-12-29T13:30:18;2.60;;;1.73;;
75096;SDS011;63684;47.964;11.186;2022-12-29T13:35:25;2.47;;;0.87;;
75096;SDS011;63684;47.964;11.186;2022-12-29T13:37:54;0.70;;;0.70;;
75096;SDS011;63684;47.964;11.186;2022-12-29T13:40:23;1.40;;;0.77;;
75096;SDS011;63684;47.964;11.186;2022-12-29T13:42:51;0.97;;;0.70;;
75096;SDS011;63684;47.964;11.186;2022-12-29T13:45:19;1.30;;;0.90;;
75096;SDS011;63684;47.964;11.186;2022-12-29T13:47:52;2.20;;;0.60;;
75096;SDS011;63684;47.964;11.186;2022-12-29T13:50:22;1.13;;;0.80;;
75096;SDS011;63684;47.964;11.186;2022-12-29T13:55:32;2.20;;;0.80;;
75096;SDS011;63684;47.964;11.186;2022-12-29T13:58:02;1.20;;;0.70;;
75096;SDS011;63684;47.964;11.186;2022-12-29T14:00:45;1.17;;;0.83;;
75096;SDS011;63684;47.964;11.186;2022-12-29T14:08:59;1.10;;;0.80;;
75096;SDS011;63684;47.964;11.186;2022-12-29T14:11:36;1.30;;;0.73;;
75096;SDS011;63684;47.964;11.186;2022-12-29T14:14:14;4.77;;;0.93;;
75096;SDS011;63684;47.964;11.186;2022-12-29T14:16:45;4.63;;;1.10;;
75096;SDS011;63684;47.964;11.186;2022-12-29T14:19:44;2.63;;;0.80;;
75096;SDS011;63684;47.964;11.186;2022-12-29T14:22:08;7.23;;;1.00;;
75096;SDS011;63684;47.964;11.186;2022-12-29T14:34:47;2.20;;;1.40;;
75096;SDS011;63684;47.964;11.186;2022-12-29T14:42:50;2.40;;;1.90;;
75096;SDS011;63684;47.964;11.186;2022-12-29T14:50:16;2.63;;;1.90;;
75096;SDS011;63684;47.964;11.186;2022-12-29T14:52:50;3.80;;;1.57;;
75096;SDS011;63684;47.964;11.186;2022-12-29T14:57:41;13.97;;;9.87;;
75096;SDS011;63684;47.964;11.186;2022-12-29T15:00:18;3.10;;;2.20;;
75096;SDS011;63684;47.964;11.186;2022-12-29T15:02:54;6.13;;;2.63;;
75096;SDS011;63684;47.964;11.186;2022-12-29T15:05:33;2.73;;;1.47;;
75096;SDS011;63684;47.964;11.186;2022-12-29T15:08:02;2.83;;;1.10;;
75096;SDS011;63684;47.964;11.186;2022-12-29T15:10:32;0.97;;;0.70;;
75096;SDS011;63684;47.964;11.186;2022-12-29T15:13:02;4.60;;;2.57;;
75096;SDS011;63684;47.964;11.186;2022-12-29T15:15:35;1.53;;;0.70;;
75096;SDS011;63684;47.964;11.186;2022-12-29T15:21:11;1.17;;;0.80;;
75096;SDS011;63684;47.964;11.186;2022-12-29T15:23:38;2.67;;;1.20;;
75096;SDS011;63684;47.964;11.186;2022-12-29T15:26:04;1.80;;;1.30;;
75096;SDS011;63684;47.964;11.186;2022-12-29T15:28:38;2.03;;;1.40;;
75096;SDS011;63684;47.964;11.186;2022-12-29T15:33:49;1.53;;;0.77;;
75096;SDS011;63684;47.964;11.186;2022-12-29T15:36:23;1.00;;;0.50;;
75096;SDS011;63684;47.964;11.186;2022-12-29T15:38:50;2.73;;;0.80;;
75096;SDS011;63684;47.964;11.186;2022-12-29T15:44:46;2.30;;;0.90;;
75096;SDS011;63684;47.964;11.186;2022-12-29T15:47:17;3.73;;;1.70;;
75096;SDS011;63684;47.964;11.186;2022-12-29T15:49:44;1.07;;;0.80;;
75096;SDS011;63684;47.964;11.186;2022-12-29T15:52:13;1.40;;;0.87;;
75096;SDS011;63684;47.964;11.186;2022-12-29T15:54:43;2.97;;;0.93;;
75096;SDS011;63684;47.964;11.186;2022-12-29T15:57:19;2.83;;;2.40;;
75096;SDS011;63684;47.964;11.186;2022-12-29T15:59:48;1.37;;;0.93;;
75096;SDS011;63684;47.964;11.186;2022-12-29T16:02:14;1.37;;;1.20;;
75096;SDS011;63684;47.964;11.186;2022-12-29T16:04:39;1.57;;;0.97;;
75096;SDS011;63684;47.964;11.186;2022-12-29T16:07:05;2.27;;;0.70;;
75096;SDS011;63684;47.964;11.186;2022-12-29T16:09:34;3.50;;;1.17;;
75096;SDS011;63684;47.964;11.186;2022-12-29T16:12:07;3.10;;;1.80;;
75096;SDS011;63684;47.964;11.186;2022-12-29T16:14:47;3.03;;;1.47;;
75096;SDS011;63684;47.964;11.186;2022-12-29T16:17:19;2.73;;;0.90;;
75096;SDS011;63684;47.964;11.186;2022-12-29T16:19:54;1.33;;;0.70;;
75096;SDS011;63684;47.964;11.186;2022-12-29T16:22:28;2.00;;;1.40;;
75096;SDS011;63684;47.964;11.186;2022-12-29T16:24:55;1.37;;;0.90;;
75096;SDS011;63684;47.964;11.186;2022-12-29T16:27:33;6.70;;;1.27;;
75096;SDS011;63684;47.964;11.186;2022-12-29T16:30:05;1.60;;;1.30;;
75096;SDS011;63684;47.964;11.186;2022-12-29T16:32:53;1.60;;;1.40;;
75096;SDS011;63684;47.964;11.186;2022-12-29T16:35:20;2.83;;;2.23;;
75096;SDS011;63684;47.964;11.186;2022-12-29T16:40:59;2.20;;;1.47;;
75096;SDS011;63684;47.964;11.186;2022-12-29T16:51:06;2.40;;;1.10;;
75096;SDS011;63684;47.964;11.186;2022-12-29T16:53:39;4.67;;;3.53;;
75096;SDS011;63684;47.964;11.186;2022-12-29T16:56:16;2.20;;;2.00;;
75096;SDS011;63684;47.964;11.186;2022-12-29T16:58:47;2.80;;;1.40;;
75096;SDS011;63684;47.964;11.186;2022-12-29T17:01:14;2.90;;;1.23;;
75096;SDS011;63684;47.964;11.186;2022-12-29T17:03:40;6.87;;;1.43;;
75096;SDS011;63684;47.964;11.186;2022-12-29T17:06:18;6.30;;;2.30;;
75096;SDS011;63684;47.964;11.186;2022-12-29T17:08:45;4.93;;;2.50;;
75096;SDS011;63684;47.964;11.186;2022-12-29T17:11:23;9.30;;;7.13;;
75096;SDS011;63684;47.964;11.186;2022-12-29T17:16:50;4.50;;;2.00;;
75096;SDS011;63684;47.964;11.186;2022-12-29T17:19:17;5.67;;;3.30;;
75096;SDS011;63684;47.964;11.186;2022-12-29T17:21:43;9.53;;;7.20;;
75096;SDS011;63684;47.964;11.186;2022-12-29T17:24:19;9.27;;;5.37;;
75096;SDS011;63684;47.964;11.186;2022-12-29T17:26:45;8.40;;;6.30;;
75096;SDS011;63684;47.964;11.186;2022-12-29T17:29:19;6.40;;;3.57;;
75096;SDS011;63684;47.964;11.186;2022-12-29T17:31:45;9.30;;;5.20;;
75096;SDS011;63684;47.964;11.186;2022-12-29T17:34:11;12.40;;;6.80;;
75096;SDS011;63684;47.964;11.186;2022-12-29T17:36:37;19.40;;;10.10;;
75096;SDS011;63684;47.964;11.186;2022-12-29T17:39:04;22.57;;;14.93;;
75096;SDS011;63684;47.964;11.186;2022-12-29T17:41:30;11.30;;;7.60;;
75096;SDS011;63684;47.964;11.186;2022-12-29T17:43:58;14.67;;;10.37;;
75096;SDS011;63684;47.964;11.186;2022-12-29T17:46:24;11.50;;;6.80;;
75096;SDS011;63684;47.964;11.186;2022-12-29T17:48:50;3.43;;;3.13;;